Time;durP1;ratioP1;P1;durP2;ratioP2;P2;SDS_P1;SDS_P2;PMS_P1;PMS_P2;Temp;Humidity;BMP_temperature;BMP_pressure;BME280_temperature;BME280_humidity;BME280_pressure;Samples;Min_cycle;Max_cycle;Signal;HPM_P1;HPM_P2
2022/10/24 00:01:14;;;;;;;66.17;24.97;;;19.20;96.40;;;;;;4999747;28;20223;-67
2022/10/24 00:03:41;;;;;;;55.27;23.70;;;19.30;96.40;;;;;;4999098;28;20256;-67
2022/10/24 00:06:10;;;;;;;50.80;24.20;;;19.30;96.40;;;;;;4998193;28;20200;-68
2022/10/24 00:08:38;;;;;;;38.67;22.80;;;19.30;96.50;;;;;;5003101;28;20203;-68
2022/10/24 00:11:32;;;;;;;93.00;23.60;;;19.30;96.50;;;;;;5002238;28;20250;-68
2022/10/24 00:14:00;;;;;;;44.33;21.77;;;19.40;96.60;;;;;;5003668;28;20225;-67
2022/10/24 00:16:27;;;;;;;57.53;21.90;;;19.40;96.60;;;;;;5004321;28;20211;-68
2022/10/24 00:18:54;;;;;;;63.07;24.20;;;19.40;96.60;;;;;;5008984;28;20218;-68
2022/10/24 00:21:21;;;;;;;38.93;22.37;;;19.40;96.60;;;;;;5004365;28;20602;-68
2022/10/24 00:23:48;;;;;;;44.47;22.50;;;19.40;96.60;;;;;;5004578;28;20206;-68
2022/10/24 00:26:16;;;;;;;65.93;22.93;;;19.40;96.60;;;;;;5006277;28;20207;-68
2022/10/24 00:28:43;;;;;;;51.37;21.97;;;19.40;96.70;;;;;;5001318;28;20263;-68
2022/10/24 00:31:16;;;;;;;64.07;20.57;;;19.40;96.70;;;;;;5004538;28;20234;-67
2022/10/24 00:33:43;;;;;;;48.90;22.43;;;19.40;96.70;;;;;;5006082;28;20599;-67
2022/10/24 00:36:16;;;;;;;70.27;21.70;;;19.50;96.70;;;;;;5007837;28;20210;-68
2022/10/24 00:38:44;;;;;;;50.17;21.73;;;19.50;96.80;;;;;;5004945;28;20214;-67
2022/10/24 00:41:16;;;;;;;35.00;21.27;;;19.50;96.80;;;;;;5004933;28;20296;-67
2022/10/24 00:43:44;;;;;;;34.90;21.13;;;19.50;96.80;;;;;;5005969;28;20268;-68
2022/10/24 00:46:11;;;;;;;39.07;21.03;;;19.50;96.80;;;;;;5004573;28;20243;-67
2022/10/24 00:48:45;;;;;;;46.53;20.50;;;19.50;96.80;;;;;;5005347;28;20223;-67
2022/10/24 00:51:25;;;;;;;54.07;19.03;;;19.50;96.80;;;;;;5009296;28;20203;-68
2022/10/24 00:54:00;;;;;;;56.63;19.07;;;19.50;96.70;;;;;;5002833;28;20592;-68
2022/10/24 00:56:31;;;;;;;61.80;19.30;;;19.60;96.70;;;;;;5005502;28;20532;-67
2022/10/24 00:59:00;;;;;;;45.37;20.00;;;19.60;96.70;;;;;;5005560;28;20227;-67
2022/10/24 01:01:27;;;;;;;58.83;20.47;;;19.60;96.70;;;;;;5005952;28;20270;-67
2022/10/24 01:03:55;;;;;;;33.63;21.60;;;19.50;96.70;;;;;;5004458;28;20643;-67
2022/10/24 01:06:40;;;;;;;66.27;23.00;;;19.50;96.70;;;;;;5002429;28;20299;-67
2022/10/24 01:09:26;;;;;;;53.60;22.00;;;19.50;96.60;;;;;;5006248;28;20209;-67
2022/10/24 01:12:19;;;;;;;51.83;21.60;;;19.50;96.60;;;;;;5007661;28;20211;-68
2022/10/24 01:15:02;;;;;;;44.40;21.40;;;19.50;96.50;;;;;;5006861;28;20227;-68
2022/10/24 01:17:44;;;;;;;78.40;20.27;;;19.40;96.50;;;;;;5004031;28;20207;-68
2022/10/24 01:20:43;;;;;;;62.83;22.13;;;19.40;96.40;;;;;;5004173;28;20197;-67
2022/10/24 01:23:21;;;;;;;52.07;21.77;;;19.40;96.40;;;;;;5002428;28;20662;-67
2022/10/24 01:26:06;;;;;;;62.60;23.30;;;19.30;96.30;;;;;;4999592;28;20281;-67
2022/10/24 01:29:02;;;;;;;65.23;22.47;;;19.20;96.30;;;;;;5005527;28;20230;-68
2022/10/24 01:31:38;;;;;;;49.47;20.50;;;19.20;96.30;;;;;;5000866;28;20203;-67
2022/10/24 01:34:14;;;;;;;51.93;20.57;;;19.20;96.30;;;;;;5004412;28;20203;-67
2022/10/24 01:37:06;;;;;;;45.63;20.10;;;19.20;96.30;;;;;;5004618;28;20202;-68
2022/10/24 01:39:41;;;;;;;37.87;20.83;;;19.10;96.30;;;;;;5004350;28;20585;-67
2022/10/24 01:42:11;;;;;;;44.93;19.73;;;19.10;96.30;;;;;;5004949;28;20238;-67
2022/10/24 01:44:47;;;;;;;63.57;19.43;;;19.10;96.30;;;;;;5001973;28;20197;-67
2022/10/24 01:47:18;;;;;;;50.33;19.33;;;19.10;96.30;;;;;;5002149;28;20202;-67
2022/10/24 01:49:52;;;;;;;41.63;20.40;;;19.10;96.30;;;;;;5005691;28;20548;-67
2022/10/24 01:52:20;;;;;;;45.90;19.70;;;19.10;96.30;;;;;;5006068;28;20203;-67
2022/10/24 01:54:48;;;;;;;44.87;18.47;;;19.00;96.20;;;;;;5003556;28;20285;-67
2022/10/24 01:57:15;;;;;;;34.57;18.20;;;19.00;96.20;;;;;;5001906;28;20340;-67
2022/10/24 01:59:46;;;;;;;92.10;17.93;;;19.00;96.20;;;;;;5003445;28;20244;-67
2022/10/24 02:02:31;;;;;;;47.03;18.87;;;19.00;96.20;;;;;;5003318;28;20215;-67
2022/10/24 02:05:11;;;;;;;44.50;18.87;;;19.00;96.20;;;;;;5005013;28;20205;-67
2022/10/24 02:07:41;;;;;;;42.27;17.27;;;19.00;96.20;;;;;;5001353;28;20206;-67
2022/10/24 02:10:14;;;;;;;44.07;17.47;;;19.00;96.20;;;;;;5003829;28;20627;-67
2022/10/24 02:12:48;;;;;;;32.67;17.40;;;18.90;96.10;;;;;;5004363;28;20206;-67
2022/10/24 02:15:27;;;;;;;30.80;18.33;;;18.90;96.00;;;;;;4998948;28;20209;-67
2022/10/24 02:17:55;;;;;;;65.57;16.93;;;18.90;96.00;;;;;;5003048;28;20215;-67
2022/10/24 02:20:35;;;;;;;55.17;18.67;;;18.90;95.90;;;;;;5001203;28;20269;-67
2022/10/24 02:23:11;;;;;;;50.60;18.83;;;18.80;95.80;;;;;;5004478;28;20197;-67
2022/10/24 02:25:43;;;;;;;56.97;19.73;;;18.80;95.80;;;;;;5003671;28;20209;-67
2022/10/24 02:28:28;;;;;;;50.37;19.40;;;18.80;95.90;;;;;;5000945;28;20698;-66
2022/10/24 02:31:11;;;;;;;33.10;19.93;;;18.70;95.90;;;;;;5001482;28;20210;-66
2022/10/24 02:33:39;;;;;;;23.43;18.30;;;18.70;96.00;;;;;;5003892;28;20211;-66
2022/10/24 02:36:10;;;;;;;65.93;19.13;;;18.70;96.00;;;;;;5039041;28;20211;-66
2022/10/24 02:38:40;;;;;;;45.23;20.80;;;18.70;96.00;;;;;;5000963;28;20201;-67
2022/10/24 02:41:12;;;;;;;39.43;19.73;;;18.60;95.90;;;;;;5004258;28;20278;-67
2022/10/24 02:43:41;;;;;;;38.03;22.07;;;18.60;96.00;;;;;;4999891;28;20241;-67
2022/10/24 02:46:12;;;;;;;23.90;19.53;;;18.60;96.00;;;;;;5005997;28;20647;-66
2022/10/24 02:48:48;;;;;;;37.70;18.93;;;18.60;96.10;;;;;;5002558;28;20194;-66
2022/10/24 02:51:18;;;;;;;81.63;19.97;;;18.60;96.00;;;;;;5005040;28;20646;-67
2022/10/24 02:53:45;;;;;;;44.03;21.10;;;18.60;96.00;;;;;;5002912;28;20205;-67
2022/10/24 02:56:12;;;;;;;53.87;20.20;;;18.60;96.00;;;;;;5005205;28;20619;-67
2022/10/24 02:58:39;;;;;;;59.60;20.17;;;18.60;96.00;;;;;;5004745;28;20241;-67
2022/10/24 03:01:06;;;;;;;34.10;19.77;;;18.60;96.10;;;;;;5004172;28;20214;-67
2022/10/24 03:03:33;;;;;;;69.13;17.67;;;18.60;96.20;;;;;;5001775;28;20202;-68
2022/10/24 03:06:00;;;;;;;32.60;17.90;;;18.60;96.20;;;;;;5000222;28;20216;-67
2022/10/24 03:08:27;;;;;;;231.37;17.57;;;18.60;96.30;;;;;;5001420;28;20275;-67
2022/10/24 03:10:54;;;;;;;161.63;18.53;;;18.60;96.30;;;;;;5003046;28;20623;-67
2022/10/24 03:13:21;;;;;;;95.83;16.10;;;18.60;96.10;;;;;;5002782;28;20546;-67
2022/10/24 03:15:48;;;;;;;52.47;15.63;;;18.60;96.20;;;;;;5000915;28;20268;-67
2022/10/24 03:18:16;;;;;;;40.83;15.60;;;18.50;96.20;;;;;;5000137;28;20201;-67
2022/10/24 03:20:43;;;;;;;21.83;15.83;;;18.50;96.30;;;;;;5001058;28;20733;-67
2022/10/24 03:23:10;;;;;;;31.73;16.23;;;18.60;96.30;;;;;;5002823;28;20231;-67
2022/10/24 03:25:37;;;;;;;38.83;16.47;;;18.50;96.30;;;;;;5001185;28;20237;-67
2022/10/24 03:28:04;;;;;;;32.53;18.30;;;18.50;96.20;;;;;;5001380;28;20373;-67
2022/10/24 03:30:31;;;;;;;32.90;15.77;;;18.50;96.20;;;;;;5003681;28;20256;-67
2022/10/24 03:32:58;;;;;;;38.07;17.63;;;18.50;96.20;;;;;;5001139;28;20241;-67
2022/10/24 03:35:25;;;;;;;41.53;18.10;;;18.50;96.20;;;;;;5002056;28;20288;-67
2022/10/24 03:37:52;;;;;;;43.77;15.73;;;18.50;96.20;;;;;;4997775;28;20216;-67
2022/10/24 03:40:19;;;;;;;22.13;14.40;;;18.40;96.20;;;;;;5001473;28;20209;-67
2022/10/24 03:42:46;;;;;;;24.00;14.83;;;18.50;96.10;;;;;;5001378;28;20217;-67
2022/10/24 03:45:14;;;;;;;20.13;14.93;;;18.40;96.00;;;;;;4999655;28;20196;-67
2022/10/24 03:47:41;;;;;;;18.10;13.83;;;18.40;96.00;;;;;;4998964;28;20193;-67
2022/10/24 03:50:08;;;;;;;48.40;15.53;;;18.40;96.10;;;;;;5000349;28;20252;-67
2022/10/24 03:52:35;;;;;;;17.10;14.13;;;18.40;96.10;;;;;;5001745;28;20214;-66
2022/10/24 03:55:03;;;;;;;21.47;12.40;;;18.30;96.10;;;;;;5002242;28;20590;-66
2022/10/24 03:57:30;;;;;;;15.37;13.70;;;18.30;96.10;;;;;;5001332;28;20210;-66
2022/10/24 03:59:57;;;;;;;25.07;13.80;;;18.30;96.10;;;;;;5001712;28;20639;-66
2022/10/24 04:02:24;;;;;;;20.93;14.10;;;18.30;96.10;;;;;;4998616;28;20229;-66
2022/10/24 04:04:51;;;;;;;58.93;15.50;;;18.30;96.20;;;;;;5003402;28;20234;-66
2022/10/24 04:07:18;;;;;;;34.77;15.77;;;18.30;96.10;;;;;;5003733;28;20240;-67
2022/10/24 04:09:45;;;;;;;63.77;17.03;;;18.20;96.10;;;;;;5000242;28;20206;-67
2022/10/24 04:12:12;;;;;;;41.90;15.53;;;18.20;96.10;;;;;;5001398;28;20219;-66
2022/10/24 04:14:39;;;;;;;43.30;14.90;;;18.20;96.20;;;;;;5002580;28;20208;-66
2022/10/24 04:17:06;;;;;;;28.47;14.50;;;18.20;96.20;;;;;;5002742;28;20230;-67
2022/10/24 04:19:33;;;;;;;45.23;15.33;;;18.20;96.20;;;;;;4999579;28;20666;-67
2022/10/24 04:22:00;;;;;;;40.63;15.47;;;18.20;96.20;;;;;;5003339;28;20276;-67
2022/10/24 04:24:28;;;;;;;55.57;16.90;;;18.20;96.30;;;;;;5001496;28;20653;-67
2022/10/24 04:26:55;;;;;;;54.80;17.00;;;18.20;96.40;;;;;;5003951;28;20281;-67
2022/10/24 04:29:22;;;;;;;49.10;17.20;;;18.20;96.50;;;;;;5002594;28;20201;-67
2022/10/24 04:31:49;;;;;;;45.87;15.77;;;18.20;96.60;;;;;;5000793;28;20204;-67
2022/10/24 04:34:16;;;;;;;68.77;16.87;;;18.20;96.60;;;;;;5002244;28;20210;-67
2022/10/24 04:36:43;;;;;;;43.30;16.70;;;18.20;96.60;;;;;;5001989;28;20220;-67
2022/10/24 04:39:10;;;;;;;47.57;18.00;;;18.20;96.60;;;;;;5000412;28;20209;-67
2022/10/24 04:41:37;;;;;;;50.63;18.80;;;18.20;96.60;;;;;;4997417;28;20684;-67
2022/10/24 04:44:04;;;;;;;55.13;17.63;;;18.20;96.70;;;;;;5004962;28;20200;-67
2022/10/24 04:46:32;;;;;;;38.00;18.27;;;18.20;96.70;;;;;;5001209;28;20210;-67
2022/10/24 04:48:59;;;;;;;48.00;18.07;;;18.20;96.70;;;;;;5002895;28;20199;-67
2022/10/24 04:51:26;;;;;;;23.37;18.77;;;18.30;96.80;;;;;;5000290;28;20201;-66
2022/10/24 04:53:53;;;;;;;55.70;17.80;;;18.30;96.80;;;;;;5001827;28;20235;-66
2022/10/24 04:56:20;;;;;;;39.77;19.23;;;18.30;96.80;;;;;;5000884;28;20210;-67
2022/10/24 04:58:47;;;;;;;33.07;19.47;;;18.30;96.80;;;;;;5005039;28;20319;-66
2022/10/24 05:01:14;;;;;;;47.70;18.83;;;18.30;96.80;;;;;;5006077;28;20249;-67
2022/10/24 05:03:41;;;;;;;34.63;20.27;;;18.30;96.80;;;;;;5002971;28;20200;-66
2022/10/24 05:06:08;;;;;;;36.00;19.90;;;18.30;96.90;;;;;;5003410;28;20202;-67
2022/10/24 05:08:35;;;;;;;35.60;22.27;;;18.40;96.90;;;;;;5007975;28;20339;-67
2022/10/24 05:11:03;;;;;;;49.87;20.77;;;18.40;96.90;;;;;;5006412;28;20632;-67
2022/10/24 05:13:30;;;;;;;59.53;20.57;;;18.40;96.90;;;;;;5007017;28;20639;-66
2022/10/24 05:16:02;;;;;;;136.33;22.90;;;18.50;96.90;;;;;;5001276;28;20190;-67
2022/10/24 05:18:29;;;;;;;79.20;23.70;;;18.50;96.80;;;;;;5003649;28;20218;-67
2022/10/24 05:20:58;;;;;;;52.70;23.90;;;18.50;96.80;;;;;;5003472;28;20267;-67
2022/10/24 05:23:25;;;;;;;128.87;23.97;;;18.50;96.90;;;;;;5003298;28;20225;-67
2022/10/24 05:25:53;;;;;;;198.67;25.57;;;18.50;96.90;;;;;;5004910;28;20204;-67
2022/10/24 05:28:20;;;;;;;50.53;23.87;;;18.60;96.90;;;;;;5004252;28;20205;-67
2022/10/24 05:30:47;;;;;;;87.77;23.80;;;18.60;97.00;;;;;;5004574;28;20195;-67
2022/10/24 05:33:14;;;;;;;118.93;22.87;;;18.60;97.00;;;;;;5004106;28;20211;-67
2022/10/24 05:35:41;;;;;;;45.27;23.00;;;18.60;97.00;;;;;;5004833;28;20229;-67
2022/10/24 05:38:08;;;;;;;63.37;22.90;;;18.60;97.10;;;;;;5005648;28;20269;-67
2022/10/24 05:40:35;;;;;;;47.60;22.77;;;18.60;97.20;;;;;;5003264;28;20207;-67
2022/10/24 05:43:02;;;;;;;188.73;27.83;;;18.60;97.30;;;;;;5006722;28;20236;-67
2022/10/24 05:45:29;;;;;;;71.87;22.90;;;18.60;97.30;;;;;;5005784;28;20273;-67
2022/10/24 05:47:56;;;;;;;108.90;25.67;;;18.60;97.30;;;;;;5003465;28;20537;-66
2022/10/24 05:50:25;;;;;;;67.13;24.87;;;18.60;97.30;;;;;;5004998;28;20220;-66
2022/10/24 05:52:52;;;;;;;69.30;22.47;;;18.60;97.30;;;;;;5006470;28;20546;-66
2022/10/24 05:55:19;;;;;;;74.40;22.93;;;18.60;97.30;;;;;;5001063;28;20210;-66
2022/10/24 05:57:46;;;;;;;58.60;23.07;;;18.60;97.30;;;;;;5000695;28;20230;-66
2022/10/24 06:00:15;;;;;;;65.70;23.23;;;18.60;97.30;;;;;;5006150;28;20305;-66
2022/10/24 06:02:42;;;;;;;56.07;24.80;;;18.60;97.30;;;;;;5004792;28;20225;-67
2022/10/24 06:05:10;;;;;;;36.70;22.63;;;18.60;97.30;;;;;;5002922;28;20198;-66
2022/10/24 06:07:38;;;;;;;87.10;22.07;;;18.60;97.30;;;;;;5006118;28;20220;-66
2022/10/24 06:10:06;;;;;;;222.13;27.73;;;18.60;97.30;;;;;;5004150;28;20201;-67
2022/10/24 06:12:35;;;;;;;65.67;23.60;;;18.60;97.00;;;;;;4999484;28;20264;-67
2022/10/24 06:15:04;;;;;;;131.40;25.50;;;18.60;97.40;;;;;;5006219;28;20560;-66
2022/10/24 06:17:31;;;;;;;46.33;23.77;;;18.50;97.30;;;;;;5004123;28;20543;-67
2022/10/24 06:19:58;;;;;;;57.93;22.53;;;18.50;97.40;;;;;;5001175;28;20646;-66
2022/10/24 06:22:28;;;;;;;58.23;20.57;;;18.50;97.40;;;;;;5003185;28;20719;-67
2022/10/24 06:24:56;;;;;;;52.30;19.30;;;18.60;97.50;;;;;;5001478;28;20260;-66
2022/10/24 06:27:23;;;;;;;45.87;19.13;;;18.60;97.50;;;;;;5002959;28;20203;-66
2022/10/24 06:29:50;;;;;;;57.77;20.30;;;18.60;97.50;;;;;;5002537;28;20203;-66
2022/10/24 06:32:18;;;;;;;51.83;19.27;;;18.60;97.50;;;;;;5002954;28;20221;-66
2022/10/24 06:34:45;;;;;;;77.57;19.47;;;18.60;97.40;;;;;;5000903;28;20209;-66
2022/10/24 06:37:12;;;;;;;57.87;19.77;;;18.60;97.70;;;;;;5003430;28;20235;-66
2022/10/24 06:39:39;;;;;;;53.00;18.67;;;18.60;97.30;;;;;;5002552;28;20257;-66
2022/10/24 06:42:06;;;;;;;44.50;20.20;;;18.60;97.20;;;;;;5005554;28;20309;-66
2022/10/24 06:44:35;;;;;;;62.77;19.40;;;18.60;97.20;;;;;;5004215;28;20189;-66
2022/10/24 06:47:02;;;;;;;50.93;20.97;;;18.60;97.10;;;;;;5002687;28;20698;-66
2022/10/24 06:49:29;;;;;;;33.67;19.67;;;18.60;97.10;;;;;;5000649;28;20202;-66
2022/10/24 06:51:57;;;;;;;37.37;18.90;;;18.60;97.20;;;;;;5008902;28;20259;-66
2022/10/24 06:54:24;;;;;;;43.63;18.03;;;18.70;97.30;;;;;;5001487;28;20270;-66
2022/10/24 06:56:56;;;;;;;48.43;17.37;;;18.70;97.20;;;;;;5001961;28;20213;-66
2022/10/24 06:59:23;;;;;;;47.03;16.83;;;18.70;97.40;;;;;;5004950;28;20649;-67
2022/10/24 07:01:50;;;;;;;36.43;17.83;;;18.80;97.10;;;;;;5002032;28;20214;-66
2022/10/24 07:04:18;;;;;;;36.43;16.83;;;18.80;97.10;;;;;;5002321;28;20201;-66
2022/10/24 07:06:45;;;;;;;55.60;18.50;;;18.80;97.00;;;;;;5001345;28;20230;-66
2022/10/24 07:09:12;;;;;;;57.77;19.17;;;18.90;97.30;;;;;;5005456;28;20285;-66
2022/10/24 07:11:42;;;;;;;37.53;18.00;;;18.90;96.90;;;;;;5004354;28;20290;-66
2022/10/24 07:14:09;;;;;;;31.53;18.77;;;18.90;96.90;;;;;;5002734;28;20735;-66
2022/10/24 07:16:37;;;;;;;39.67;17.33;;;18.90;96.80;;;;;;4999116;28;20207;-66
2022/10/24 07:19:04;;;;;;;26.43;19.50;;;19.00;96.80;;;;;;4999237;28;20290;-66
2022/10/24 07:21:32;;;;;;;28.47;19.33;;;19.00;96.70;;;;;;5000381;28;20681;-64
2022/10/24 07:24:00;;;;;;;37.90;18.13;;;19.00;96.80;;;;;;5005233;28;20233;-63
2022/10/24 07:26:28;;;;;;;39.80;18.63;;;19.10;96.80;;;;;;5004770;28;20208;-65
2022/10/24 07:28:59;;;;;;;39.47;19.67;;;19.10;96.60;;;;;;4999642;28;20197;-65
2022/10/24 07:31:33;;;;;;;32.63;18.70;;;19.10;96.50;;;;;;5003804;28;20214;-62
2022/10/24 07:34:02;;;;;;;24.97;19.33;;;19.10;96.50;;;;;;4999965;28;20196;-62
2022/10/24 07:36:29;;;;;;;29.20;21.50;;;19.10;96.50;;;;;;5002970;28;20204;-64
2022/10/24 07:38:57;;;;;;;32.43;24.60;;;19.20;96.60;;;;;;5002536;28;20198;-65
2022/10/24 07:41:26;;;;;;;41.27;26.20;;;19.20;96.60;;;;;;5003739;28;20200;-66
2022/10/24 07:43:54;;;;;;;37.20;27.60;;;19.20;96.60;;;;;;5000785;28;20253;-65
2022/10/24 07:46:21;;;;;;;39.67;26.90;;;19.30;96.60;;;;;;5003419;28;20208;-66
2022/10/24 07:48:52;;;;;;;42.37;29.27;;;19.30;96.50;;;;;;4999970;28;20649;-66
2022/10/24 07:51:20;;;;;;;40.47;28.37;;;19.30;96.40;;;;;;5003398;28;20213;-66
2022/10/24 07:53:47;;;;;;;44.23;29.77;;;19.40;96.50;;;;;;5002272;28;20289;-66
2022/10/24 07:56:16;;;;;;;37.73;27.07;;;19.40;96.50;;;;;;4999569;28;20709;-65
2022/10/24 07:58:44;;;;;;;41.90;28.07;;;19.40;96.50;;;;;;5004310;28;20218;-65
2022/10/24 08:01:15;;;;;;;40.17;28.40;;;19.50;96.50;;;;;;5000299;28;20210;-65
2022/10/24 08:03:42;;;;;;;46.73;29.90;;;19.50;96.10;;;;;;5003555;28;20237;-65
2022/10/24 08:06:12;;;;;;;44.67;28.53;;;19.50;96.00;;;;;;5000468;28;20207;-64
2022/10/24 08:08:39;;;;;;;41.87;28.17;;;19.60;96.10;;;;;;5003154;28;20207;-65
2022/10/24 08:11:09;;;;;;;47.50;28.57;;;19.60;96.00;;;;;;5000445;28;20227;-64
2022/10/24 08:13:37;;;;;;;40.60;28.53;;;19.50;95.90;;;;;;5004451;28;20241;-66
2022/10/24 08:16:06;;;;;;;41.00;28.47;;;19.50;95.90;;;;;;4999093;28;20280;-65
2022/10/24 08:18:34;;;;;;;38.77;26.57;;;19.50;96.00;;;;;;5008948;28;20248;-63
2022/10/24 08:21:11;;;;;;;33.47;25.00;;;19.50;95.90;;;;;;4999762;28;20238;-64
2022/10/24 08:23:42;;;;;;;31.37;25.37;;;19.40;95.70;;;;;;5003569;28;20284;-65
2022/10/24 08:26:12;;;;;;;32.07;25.90;;;19.40;95.80;;;;;;5002150;28;20667;-65
2022/10/24 08:28:40;;;;;;;26.93;23.77;;;19.30;96.00;;;;;;4999618;28;20563;-67
2022/10/24 08:31:11;;;;;;;28.57;23.27;;;19.30;96.10;;;;;;5019723;28;20474;-66
2022/10/24 08:33:38;;;;;;;25.03;22.17;;;19.30;96.20;;;;;;5003890;28;20256;-66
2022/10/24 08:36:15;;;;;;;26.50;22.63;;;19.30;96.20;;;;;;5004590;28;20309;-66
2022/10/24 08:38:42;;;;;;;26.77;22.60;;;19.30;96.00;;;;;;5001833;28;20603;-66
2022/10/24 08:41:16;;;;;;;26.93;22.43;;;19.40;96.30;;;;;;5004820;28;20213;-66
2022/10/24 08:43:44;;;;;;;26.73;21.80;;;19.40;96.40;;;;;;5006935;28;20647;-65
2022/10/24 08:46:35;;;;;;;26.17;22.63;;;19.50;96.50;;;;;;5006076;28;20217;-64
2022/10/24 08:49:24;;;;;;;28.80;22.60;;;19.50;96.50;;;;;;5005251;28;20583;-66
2022/10/24 08:52:11;;;;;;;31.07;22.53;;;19.60;96.50;;;;;;5013366;28;20230;-67
2022/10/24 08:54:41;;;;;;;28.50;22.87;;;19.60;96.40;;;;;;5006000;28;20206;-64
2022/10/24 08:57:19;;;;;;;33.20;23.90;;;19.70;96.40;;;;;;5003705;28;20200;-66
2022/10/24 08:59:47;;;;;;;27.13;23.43;;;19.70;96.50;;;;;;5009005;28;20245;-64
2022/10/24 09:02:27;;;;;;;24.53;21.90;;;19.80;96.40;;;;;;5003637;28;20202;-65
2022/10/24 09:05:20;;;;;;;31.27;23.87;;;19.90;96.30;;;;;;5008780;28;20282;-66
2022/10/24 09:07:49;;;;;;;27.43;22.60;;;20.10;96.30;;;;;;5003407;28;20196;-64
2022/10/24 09:10:22;;;;;;;27.70;23.20;;;20.30;96.20;;;;;;5004903;28;20203;-65
2022/10/24 09:12:49;;;;;;;26.73;21.97;;;20.50;96.00;;;;;;5004250;28;20253;-64
2022/10/24 09:15:27;;;;;;;24.27;21.67;;;20.70;95.80;;;;;;5003925;28;20211;-64
2022/10/24 09:17:57;;;;;;;24.47;20.67;;;20.90;95.30;;;;;;5003118;28;20269;-65
2022/10/24 09:20:32;;;;;;;27.30;22.40;;;21.00;94.90;;;;;;5004403;28;20332;-65
2022/10/24 09:23:03;;;;;;;22.77;20.33;;;21.00;94.50;;;;;;5007976;28;20227;-64
2022/10/24 09:25:34;;;;;;;24.40;20.07;;;21.10;94.50;;;;;;5007527;28;20214;-66
2022/10/24 09:28:04;;;;;;;25.03;21.30;;;21.20;94.60;;;;;;5003416;28;20563;-65
2022/10/24 09:30:32;;;;;;;23.23;20.57;;;21.30;94.40;;;;;;5003462;28;20645;-66
2022/10/24 09:33:12;;;;;;;22.23;19.80;;;21.50;94.20;;;;;;5004347;28;20201;-65
2022/10/24 09:35:39;;;;;;;20.90;18.67;;;21.70;93.50;;;;;;5003110;28;20192;-65
2022/10/24 09:38:33;;;;;;;22.07;19.77;;;21.80;93.10;;;;;;5003882;28;20208;-68
2022/10/24 09:41:23;;;;;;;22.10;18.93;;;22.00;92.50;;;;;;5005086;28;20598;-66
2022/10/24 09:43:58;;;;;;;22.93;18.60;;;22.20;91.90;;;;;;5004786;28;20220;-67
2022/10/24 09:46:27;;;;;;;23.60;18.33;;;22.30;91.60;;;;;;5005117;28;20207;-64
2022/10/24 09:49:16;;;;;;;21.50;17.20;;;22.40;91.60;;;;;;5003539;28;20248;-64
2022/10/24 09:51:49;;;;;;;22.93;18.10;;;22.60;90.70;;;;;;5005831;28;20223;-66
2022/10/24 09:54:19;;;;;;;22.90;17.77;;;22.70;90.30;;;;;;5004217;28;20232;-66
2022/10/24 09:56:53;;;;;;;20.23;16.77;;;22.90;90.20;;;;;;5002043;28;20215;-67
2022/10/24 09:59:41;;;;;;;18.50;15.73;;;23.00;89.30;;;;;;5002672;28;20647;-65
2022/10/24 10:02:18;;;;;;;25.03;16.23;;;23.20;88.70;;;;;;5003898;28;20270;-66
2022/10/24 10:04:48;;;;;;;17.07;15.03;;;23.40;88.10;;;;;;5003061;28;20590;-63
2022/10/24 10:07:26;;;;;;;16.13;14.57;;;23.60;87.20;;;;;;5002292;28;20633;-64
2022/10/24 10:09:56;;;;;;;21.83;14.97;;;23.80;85.80;;;;;;5004877;28;20204;-66
2022/10/24 10:12:36;;;;;;;19.50;15.27;;;24.10;85.40;;;;;;5003459;28;20203;-67
2022/10/24 10:15:29;;;;;;;21.23;14.27;;;24.20;84.00;;;;;;5007965;28;20227;-67
2022/10/24 10:18:00;;;;;;;16.47;13.93;;;24.30;82.60;;;;;;5002582;28;20211;-67
2022/10/24 10:20:40;;;;;;;35.17;17.10;;;24.30;80.00;;;;;;5002805;28;20314;-66
2022/10/24 10:23:27;;;;;;;18.23;14.30;;;24.30;80.60;;;;;;5004104;28;20223;-66
2022/10/24 10:26:11;;;;;;;15.40;12.60;;;24.30;80.30;;;;;;5001498;28;20263;-67
2022/10/24 10:29:14;;;;;;;14.43;12.57;;;24.20;80.20;;;;;;5003718;28;20219;-67
2022/10/24 10:31:42;;;;;;;17.37;12.53;;;24.20;80.20;;;;;;5002659;28;20208;-68
2022/10/24 10:34:24;;;;;;;14.33;12.93;;;24.20;80.10;;;;;;5002090;28;20212;-68
2022/10/24 10:37:21;;;;;;;14.87;12.63;;;24.10;79.50;;;;;;5001837;28;20275;-68
2022/10/24 10:40:13;;;;;;;16.63;12.93;;;24.10;79.50;;;;;;5006731;28;20188;-67
2022/10/24 10:43:17;;;;;;;13.23;11.80;;;24.10;78.40;;;;;;5011344;28;20211;-67
2022/10/24 10:45:46;;;;;;;14.20;11.03;;;24.20;78.60;;;;;;5003270;28;20196;-67
2022/10/24 10:48:19;;;;;;;15.30;12.73;;;24.20;78.90;;;;;;5005487;28;20220;-67
2022/10/24 10:51:02;;;;;;;15.97;12.93;;;24.20;78.90;;;;;;5001499;28;20258;-67
2022/10/24 10:53:46;;;;;;;16.57;12.10;;;24.30;78.20;;;;;;5002324;28;20652;-67
2022/10/24 10:56:41;;;;;;;14.80;12.50;;;24.40;78.30;;;;;;5001755;28;20262;-67
2022/10/24 10:59:43;;;;;;;16.27;11.70;;;24.40;78.30;;;;;;5004208;28;20228;-67
2022/10/24 11:02:33;;;;;;;16.80;11.67;;;24.40;77.70;;;;;;5003603;28;20270;-68
2022/10/24 11:05:31;;;;;;;15.77;11.97;;;24.40;77.40;;;;;;5002424;28;20212;-68
2022/10/24 11:08:26;;;;;;;18.67;12.03;;;24.40;77.40;;;;;;5003757;28;20262;-68
2022/10/24 11:11:01;;;;;;;16.50;12.00;;;24.40;77.40;;;;;;5005966;28;20646;-68
2022/10/24 11:13:39;;;;;;;18.43;12.50;;;24.50;77.40;;;;;;5010572;28;20204;-68
2022/10/24 11:16:12;;;;;;;15.30;11.53;;;24.60;77.20;;;;;;5003521;28;20208;-68
2022/10/24 11:18:43;;;;;;;14.10;10.93;;;24.60;76.80;;;;;;5002065;28;20272;-67
2022/10/24 11:21:13;;;;;;;14.57;10.97;;;24.60;76.60;;;;;;5001273;28;20243;-67
2022/10/24 11:23:50;;;;;;;17.47;10.57;;;24.70;76.30;;;;;;5003845;28;20572;-67
2022/10/24 11:26:45;;;;;;;12.63;10.47;;;24.80;75.90;;;;;;5004679;28;20691;-67
2022/10/24 11:30:04;;;;;;;18.13;10.00;;;24.80;75.10;;;;;;5002321;28;20235;-67
2022/10/24 11:32:37;;;;;;;14.87;9.87;;;24.80;75.20;;;;;;5030073;28;20216;-67
2022/10/24 11:35:25;;;;;;;17.07;10.40;;;24.70;74.90;;;;;;5016889;28;20279;-67
2022/10/24 11:38:01;;;;;;;15.40;10.33;;;24.60;74.90;;;;;;5017514;28;20206;-67
2022/10/24 11:40:30;;;;;;;15.23;9.97;;;24.60;74.60;;;;;;5004235;28;20261;-67
2022/10/24 11:43:22;;;;;;;13.20;9.00;;;24.60;74.00;;;;;;5000838;28;20193;-67
2022/10/24 11:46:00;;;;;;;20.17;11.30;;;24.60;74.40;;;;;;5002386;28;20239;-67
2022/10/24 11:48:37;;;;;;;24.87;12.60;;;24.50;74.50;;;;;;5003937;28;20191;-68
2022/10/24 11:51:16;;;;;;;16.70;9.13;;;24.50;74.70;;;;;;5002045;28;20200;-67
2022/10/24 11:53:58;;;;;;;13.33;8.33;;;24.50;74.60;;;;;;4998160;28;20223;-67
2022/10/24 11:56:38;;;;;;;11.40;7.80;;;24.50;74.30;;;;;;5002360;28;20216;-66
2022/10/24 11:59:12;;;;;;;12.37;7.67;;;24.50;74.10;;;;;;5002502;28;20227;-68
2022/10/24 12:01:39;;;;;;;13.50;7.90;;;24.60;73.80;;;;;;5002490;28;20257;-66
2022/10/24 12:04:57;;;;;;;10.43;8.23;;;24.70;73.60;;;;;;5002336;28;20682;-66
2022/10/24 12:07:52;;;;;;;13.90;8.03;;;24.90;72.50;;;;;;5013238;28;20203;-65
2022/10/24 12:11:04;;;;;;;18.57;7.67;;;25.10;72.00;;;;;;5003335;28;20201;-65
2022/10/24 12:13:40;;;;;;;8.53;7.10;;;25.20;71.30;;;;;;5002459;28;20295;-67
2022/10/24 12:16:48;;;;;;;12.20;7.37;;;25.30;70.90;;;;;;5001043;28;20258;-67
2022/10/24 12:19:18;;;;;;;15.67;7.73;;;25.30;69.60;;;;;;4999523;28;20204;-67
2022/10/24 12:21:53;;;;;;;11.27;7.13;;;25.20;69.40;;;;;;5001925;28;20224;-67
2022/10/24 12:24:29;;;;;;;11.63;7.27;;;25.10;69.50;;;;;;5003437;28;20303;-66
2022/10/24 12:27:01;;;;;;;12.20;6.77;;;25.10;69.80;;;;;;5002051;28;20249;-64
2022/10/24 12:29:32;;;;;;;11.07;7.07;;;25.20;70.00;;;;;;4999909;28;20199;-65
2022/10/24 12:32:38;;;;;;;11.80;7.17;;;25.30;69.90;;;;;;5003497;28;20196;-66
2022/10/24 12:35:32;;;;;;;13.43;7.77;;;25.40;69.10;;;;;;5002972;28;20205;-64
2022/10/24 12:38:01;;;;;;;13.60;6.83;;;25.30;68.80;;;;;;5000148;28;20207;-64
2022/10/24 12:40:47;;;;;;;8.43;6.40;;;25.30;68.90;;;;;;5004954;28;20215;-64
2022/10/24 12:43:36;;;;;;;10.10;6.47;;;25.30;68.90;;;;;;4997092;28;20235;-65
2022/10/24 12:46:15;;;;;;;11.40;6.90;;;25.30;68.90;;;;;;5002196;28;20193;-69
2022/10/24 12:48:57;;;;;;;11.27;6.87;;;25.30;68.60;;;;;;5001629;28;20622;-66
2022/10/24 12:51:41;;;;;;;9.93;6.80;;;25.30;68.50;;;;;;4999961;28;20205;-65
2022/10/24 12:54:10;;;;;;;13.50;6.67;;;25.30;68.30;;;;;;5002423;28;20239;-66
2022/10/24 12:56:50;;;;;;;11.87;6.27;;;25.30;68.40;;;;;;5003412;28;20206;-68
2022/10/24 12:59:28;;;;;;;12.70;6.70;;;25.30;68.50;;;;;;5001862;28;20664;-65